Time;durP1;ratioP1;P1;durP2;ratioP2;P2;SDS_P1;SDS_P2;PMS_P1;PMS_P2;Temp;Humidity;BMP_temperature;BMP_pressure;BME280_temperature;BME280_humidity;BME280_pressure;Samples;Min_cycle;Max_cycle;Signal;HPM_P1;HPM_P2
2022/01/17 17:05:33;;;;;;;7.68;2.92;;;15.00;77.60;;;;;;2299493;62;29993;-71
2022/01/17 17:08:00;;;;;;;7.75;2.55;;;15.00;77.20;;;;;;2276598;62;30288;-72
2022/01/17 17:10:26;;;;;;;7.93;2.78;;;15.20;78.10;;;;;;2282913;62;30318;-71
2022/01/17 17:12:55;;;;;;;6.60;2.65;;;15.30;78.80;;;;;;2282865;62;30258;-70
2022/01/17 17:15:21;;;;;;;5.35;2.40;;;15.50;79.40;;;;;;2283108;62;30228;-70
2022/01/17 17:17:49;;;;;;;6.05;2.38;;;15.60;79.70;;;;;;2289156;62;30098;-71
2022/01/17 17:20:15;;;;;;;6.40;2.40;;;15.70;80.00;;;;;;2291094;62;30168;-72
2022/01/17 17:22:41;;;;;;;4.10;2.17;;;15.80;80.30;;;;;;2291217;62;30029;-71
2022/01/17 17:25:08;;;;;;;5.13;2.40;;;15.90;80.10;;;;;;2291240;62;30481;-72
2022/01/17 17:27:35;;;;;;;5.72;2.38;;;16.00;80.10;;;;;;2291050;62;30044;-72
2022/01/17 17:30:01;;;;;;;7.03;2.65;;;16.10;80.00;;;;;;2281907;62;30046;-70
2022/01/17 17:32:27;;;;;;;8.10;2.97;;;16.10;79.80;;;;;;2283878;62;30876;-71
2022/01/17 17:34:53;;;;;;;5.30;2.38;;;16.20;79.80;;;;;;2283409;62;30127;-72
2022/01/17 17:37:19;;;;;;;5.00;2.38;;;16.30;80.00;;;;;;2283695;62;30085;-71
2022/01/17 17:39:45;;;;;;;2.97;2.10;;;16.30;79.50;;;;;;2283423;62;30204;-71
2022/01/17 17:42:11;;;;;;;5.70;2.60;;;16.40;79.50;;;;;;2287070;62;30317;-71
2022/01/17 17:44:40;;;;;;;6.22;2.35;;;16.40;79.20;;;;;;2277635;62;30281;-69
2022/01/17 17:47:07;;;;;;;3.72;2.28;;;16.40;78.90;;;;;;2279947;62;30151;-69
2022/01/17 17:49:33;;;;;;;3.50;1.85;;;16.40;79.00;;;;;;2281886;62;29985;-69
2022/01/17 17:51:59;;;;;;;6.20;2.42;;;16.40;79.00;;;;;;2285678;62;31127;-69
2022/01/17 17:54:25;;;;;;;5.85;2.47;;;16.30;79.00;;;;;;2281559;62;30033;-69
2022/01/17 17:56:51;;;;;;;7.03;2.70;;;16.30;78.90;;;;;;2281816;62;31203;-69
2022/01/17 17:59:19;;;;;;;8.00;2.80;;;16.30;78.80;;;;;;2281858;62;30489;-69
2022/01/17 18:01:45;;;;;;;9.27;3.28;;;16.20;78.80;;;;;;2289202;62;30106;-69
2022/01/17 18:04:11;;;;;;;12.00;3.95;;;16.10;78.70;;;;;;2287336;62;30605;-68
2022/01/17 18:06:37;;;;;;;10.63;3.63;;;16.10;79.20;;;;;;2281887;62;30077;-71
2022/01/17 18:09:06;;;;;;;11.90;4.25;;;16.10;80.00;;;;;;2278348;62;30365;-69
2022/01/17 18:11:32;;;;;;;11.48;3.70;;;16.10;79.30;;;;;;2283823;62;30191;-69
2022/01/17 18:14:05;;;;;;;9.38;3.85;;;16.10;79.40;;;;;;2277390;62;31314;-70
2022/01/17 18:16:31;;;;;;;11.52;3.30;;;16.10;79.20;;;;;;2272347;62;30264;-70
2022/01/17 18:18:57;;;;;;;8.80;3.60;;;16.10;79.10;;;;;;2275609;62;30384;-70
2022/01/17 18:21:23;;;;;;;13.27;3.97;;;16.00;79.00;;;;;;2284356;62;31062;-69
2022/01/17 18:23:49;;;;;;;11.32;3.53;;;16.00;79.30;;;;;;2276728;62;30286;-70
2022/01/17 18:26:18;;;;;;;7.50;2.95;;;16.00;79.30;;;;;;2275172;62;30152;-70
2022/01/17 18:28:44;;;;;;;9.85;3.20;;;16.00;79.20;;;;;;2275457;62;34230;-69
2022/01/17 18:31:10;;;;;;;9.55;3.38;;;16.10;79.20;;;;;;2281356;62;30881;-70
2022/01/17 18:33:36;;;;;;;6.93;2.80;;;16.10;79.00;;;;;;2274783;62;31027;-69
2022/01/17 18:36:05;;;;;;;7.57;2.80;;;16.10;78.90;;;;;;2280572;62;30083;-69
2022/01/17 18:38:31;;;;;;;9.13;3.22;;;16.20;78.80;;;;;;2276981;62;30266;-68
2022/01/17 18:41:00;;;;;;;7.00;3.00;;;16.20;78.40;;;;;;2285006;62;31979;-69
2022/01/17 18:43:29;;;;;;;8.00;3.20;;;16.10;78.30;;;;;;2277771;62;30003;-69
2022/01/17 18:45:55;;;;;;;13.10;3.47;;;16.10;78.40;;;;;;2277947;62;30384;-77
2022/01/17 18:48:23;;;;;;;6.38;2.90;;;16.10;78.50;;;;;;2285319;62;30169;-75
2022/01/17 18:50:48;;;;;;;6.47;2.90;;;16.20;78.40;;;;;;2285079;62;30142;-74
2022/01/17 18:53:17;;;;;;;4.75;2.58;;;16.40;78.40;;;;;;2285350;62;30425;-74
2022/01/17 18:55:43;;;;;;;5.65;2.55;;;16.50;78.10;;;;;;2285230;62;30072;-74
2022/01/17 18:58:08;;;;;;;4.43;2.72;;;16.60;77.90;;;;;;2284834;62;30238;-76
2022/01/17 19:00:37;;;;;;;3.95;2.53;;;16.70;77.70;;;;;;2285265;62;30289;-73
2022/01/17 19:03:04;;;;;;;4.18;2.70;;;16.80;77.50;;;;;;2285214;62;30669;-70
2022/01/17 19:05:29;;;;;;;4.40;2.15;;;16.90;77.30;;;;;;2284687;62;30140;-69
2022/01/17 19:07:55;;;;;;;3.60;1.70;;;17.00;77.10;;;;;;2275629;62;30338;-69
2022/01/17 19:10:23;;;;;;;4.28;2.08;;;17.00;77.00;;;;;;2283482;62;30236;-70
2022/01/17 19:12:49;;;;;;;4.70;2.20;;;17.10;77.00;;;;;;2284740;62;30380;-70
2022/01/17 19:15:15;;;;;;;3.40;1.95;;;17.10;76.80;;;;;;2285101;62;30129;-71
2022/01/17 19:23:04;;;;;;;4.03;2.22;;;17.20;76.50;;;;;;2269501;62;30183;-71
2022/01/17 19:25:31;;;;;;;3.28;1.90;;;17.20;76.30;;;;;;2269258;62;30046;-71
2022/01/17 19:27:57;;;;;;;5.03;2.10;;;17.30;76.20;;;;;;2284472;62;29953;-72
2022/01/17 19:30:23;;;;;;;4.00;2.00;;;17.30;76.00;;;;;;2279714;62;30276;-72
2022/01/17 19:32:49;;;;;;;2.88;1.65;;;17.30;76.00;;;;;;2269354;62;30294;-72
2022/01/17 19:35:16;;;;;;;7.07;2.10;;;17.30;75.70;;;;;;2262706;62;30041;-70
2022/01/17 19:37:42;;;;;;;2.60;1.83;;;17.30;75.70;;;;;;2277035;62;30385;-69
2022/01/17 19:40:09;;;;;;;2.65;1.75;;;17.30;75.70;;;;;;2278046;62;31105;-69
2022/01/17 19:42:35;;;;;;;2.50;1.58;;;17.30;75.50;;;;;;2284356;62;30541;-69
2022/01/17 19:45:01;;;;;;;2.92;1.67;;;17.40;75.60;;;;;;2284924;62;30210;-70
2022/01/17 19:47:27;;;;;;;5.20;1.95;;;17.40;75.50;;;;;;2277305;62;30281;-69
2022/01/17 19:49:53;;;;;;;3.22;1.73;;;17.40;75.30;;;;;;2277617;62;30337;-69
2022/01/17 19:52:23;;;;;;;4.82;1.90;;;17.40;75.20;;;;;;2277653;62;30491;-69
2022/01/17 19:54:50;;;;;;;3.53;1.90;;;17.40;75.20;;;;;;2284721;62;30097;-69
2022/01/17 19:57:20;;;;;;;2.88;1.73;;;17.40;75.10;;;;;;2284739;62;30496;-69
2022/01/17 19:59:47;;;;;;;1.63;1.40;;;17.40;75.00;;;;;;2284810;62;30471;-69
2022/01/17 20:02:14;;;;;;;2.65;1.92;;;17.40;75.00;;;;;;2284347;62;30073;-69
2022/01/17 20:04:39;;;;;;;2.67;1.80;;;17.40;75.00;;;;;;2284786;62;30010;-69
2022/01/17 20:07:05;;;;;;;2.28;1.63;;;17.40;75.00;;;;;;2277423;62;29961;-69
2022/01/17 20:09:31;;;;;;;2.60;1.60;;;17.40;75.00;;;;;;2284136;62;30835;-69
2022/01/17 20:12:02;;;;;;;3.13;1.63;;;17.40;75.00;;;;;;2284676;62;30373;-69
2022/01/17 20:14:31;;;;;;;3.33;1.88;;;17.40;75.00;;;;;;2277380;62;30135;-69
2022/01/17 20:16:57;;;;;;;3.75;1.70;;;17.40;75.00;;;;;;2284741;62;30148;-69
2022/01/17 20:19:22;;;;;;;4.63;2.00;;;17.40;75.00;;;;;;2284707;62;30211;-69
2022/01/17 20:21:48;;;;;;;2.78;1.60;;;17.40;75.00;;;;;;2284564;62;30546;-69
2022/01/17 20:24:16;;;;;;;3.38;1.80;;;17.40;75.00;;;;;;2277431;62;31070;-69
2022/01/17 20:26:43;;;;;;;2.40;1.60;;;17.40;75.00;;;;;;2284655;62;30200;-69
2022/01/17 20:29:09;;;;;;;2.05;1.60;;;17.40;75.10;;;;;;2277223;62;30296;-69
2022/01/17 20:31:35;;;;;;;2.58;1.60;;;17.40;75.00;;;;;;2270354;62;30594;-69
2022/01/17 20:34:01;;;;;;;3.42;1.70;;;17.30;75.00;;;;;;2277310;62;30292;-69
2022/01/17 20:36:27;;;;;;;4.40;1.95;;;17.30;74.90;;;;;;2284491;62;30313;-69
2022/01/17 20:38:53;;;;;;;2.67;1.67;;;17.40;75.00;;;;;;2284517;62;30171;-69
2022/01/17 20:41:19;;;;;;;2.83;1.50;;;17.30;75.00;;;;;;2284662;62;30419;-69
2022/01/17 20:43:44;;;;;;;3.60;1.77;;;17.30;75.00;;;;;;2284399;62;30010;-69
2022/01/17 20:46:10;;;;;;;3.53;1.73;;;17.30;74.90;;;;;;2284812;62;30255;-68
2022/01/17 20:48:36;;;;;;;6.03;2.00;;;17.30;74.90;;;;;;2284732;62;30145;-69
2022/01/17 20:51:02;;;;;;;3.13;1.95;;;17.30;74.90;;;;;;2270357;62;30816;-69
2022/01/17 20:53:29;;;;;;;2.97;1.70;;;17.30;74.80;;;;;;2277301;62;30055;-69
2022/01/17 20:55:55;;;;;;;4.72;1.85;;;17.30;74.80;;;;;;2266916;62;30184;-69
2022/01/17 20:58:21;;;;;;;3.13;1.80;;;17.30;74.90;;;;;;2276193;62;30896;-69
2022/01/17 21:00:47;;;;;;;2.05;1.70;;;17.30;74.80;;;;;;2276404;62;30175;-69
2022/01/17 21:03:14;;;;;;;3.58;1.80;;;17.30;74.70;;;;;;2276160;62;30133;-71
2022/01/17 21:05:40;;;;;;;4.07;2.00;;;17.30;74.80;;;;;;2274778;62;30219;-73
2022/01/17 21:08:06;;;;;;;3.50;1.90;;;17.30;74.60;;;;;;2278896;62;30981;-73
2022/01/17 21:10:31;;;;;;;3.63;1.83;;;17.30;74.50;;;;;;2268244;62;31830;-74
2022/01/17 21:12:59;;;;;;;4.75;2.17;;;17.30;74.30;;;;;;2275045;62;30269;-73
2022/01/17 21:15:25;;;;;;;2.78;1.83;;;17.30;74.20;;;;;;2267749;62;30467;-72
2022/01/17 21:17:51;;;;;;;5.07;2.28;;;17.30;74.00;;;;;;2279533;62;30896;-73
2022/01/17 21:20:19;;;;;;;3.83;2.08;;;17.40;74.00;;;;;;2276803;62;30490;-73
2022/01/17 21:22:47;;;;;;;2.67;1.55;;;17.40;73.90;;;;;;2275063;62;29958;-72
2022/01/17 21:25:13;;;;;;;3.17;1.70;;;17.40;73.90;;;;;;2263074;62;30306;-72
2022/01/17 21:27:39;;;;;;;3.55;1.85;;;17.40;73.90;;;;;;2275596;62;30683;-73
2022/01/17 21:30:06;;;;;;;2.65;1.90;;;17.40;73.80;;;;;;2283253;62;30167;-72
2022/01/17 21:32:32;;;;;;;3.83;1.95;;;17.40;73.80;;;;;;2282765;62;30162;-70
2022/01/17 21:35:01;;;;;;;2.85;1.67;;;17.40;73.80;;;;;;2283178;62;30297;-75
2022/01/17 21:37:27;;;;;;;3.35;1.80;;;17.40;73.60;;;;;;2275528;62;31160;-75
2022/01/17 21:39:53;;;;;;;5.63;1.80;;;17.40;73.60;;;;;;2283028;62;30143;-74
2022/01/17 21:42:19;;;;;;;2.78;1.90;;;17.40;74.30;;;;;;2275782;62;30168;-74
2022/01/17 21:44:46;;;;;;;2.65;1.70;;;17.50;73.70;;;;;;2275662;62;30390;-74
2022/01/17 21:47:12;;;;;;;2.00;1.63;;;17.50;73.70;;;;;;2275557;62;30403;-75
2022/01/17 21:49:40;;;;;;;3.08;1.83;;;17.50;73.60;;;;;;2269101;62;30459;-75
2022/01/17 21:52:07;;;;;;;2.90;1.70;;;17.50;73.60;;;;;;2276734;62;30498;-75
2022/01/17 21:54:34;;;;;;;2.72;1.77;;;17.50;73.60;;;;;;2284158;62;30650;-74
2022/01/17 21:57:06;;;;;;;4.13;2.08;;;17.50;73.60;;;;;;2284347;62;30357;-74
2022/01/17 21:59:32;;;;;;;7.68;2.55;;;17.50;73.60;;;;;;2277179;62;30417;-74
2022/01/17 22:01:59;;;;;;;3.15;1.73;;;17.50;73.60;;;;;;2284135;62;30179;-74
2022/01/17 22:04:25;;;;;;;3.50;1.92;;;17.50;73.60;;;;;;2275214;62;30337;-73
2022/01/17 22:06:51;;;;;;;3.00;1.92;;;17.40;73.60;;;;;;2275992;62;30091;-74
2022/01/17 22:09:17;;;;;;;4.72;1.88;;;17.40;73.70;;;;;;2276154;62;30124;-75
2022/01/17 22:11:42;;;;;;;3.15;2.10;;;17.30;73.80;;;;;;2276099;62;30164;-74
2022/01/17 22:14:10;;;;;;;3.83;1.95;;;17.30;73.90;;;;;;2275860;62;30433;-75
2022/01/17 22:16:39;;;;;;;2.75;1.80;;;17.30;73.90;;;;;;2275989;62;30254;-75
2022/01/17 22:19:05;;;;;;;4.40;2.00;;;17.30;73.80;;;;;;2272092;62;30235;-75
2022/01/17 22:21:31;;;;;;;3.25;1.83;;;17.40;73.90;;;;;;2267838;62;30214;-74
2022/01/17 22:23:57;;;;;;;3.60;1.88;;;17.40;73.90;;;;;;2268025;62;30171;-75
2022/01/17 22:26:23;;;;;;;2.83;1.70;;;17.40;73.80;;;;;;2269908;62;30460;-75
2022/01/17 22:28:49;;;;;;;3.38;2.15;;;17.40;73.80;;;;;;2268670;62;31253;-74
2022/01/17 22:31:15;;;;;;;3.40;1.90;;;17.40;73.80;;;;;;2268024;62;30257;-75
2022/01/17 22:33:41;;;;;;;2.58;1.92;;;17.40;73.80;;;;;;2273065;62;30738;-75
2022/01/17 22:36:08;;;;;;;3.97;2.40;;;17.40;73.70;;;;;;2273567;62;30198;-75
2022/01/17 22:38:35;;;;;;;4.70;1.90;;;17.40;73.80;;;;;;2267448;62;30246;-74
2022/01/17 22:41:00;;;;;;;4.53;2.10;;;17.40;73.80;;;;;;2260643;62;30368;-74
2022/01/17 22:43:26;;;;;;;4.90;1.90;;;17.30;73.80;;;;;;2267444;62;30129;-74
2022/01/17 22:45:52;;;;;;;3.25;2.13;;;17.30;74.00;;;;;;2267683;62;30252;-75
2022/01/17 22:48:18;;;;;;;3.50;1.98;;;17.30;74.00;;;;;;2267649;62;30110;-75
2022/01/17 22:50:44;;;;;;;4.00;2.03;;;17.30;74.00;;;;;;2269263;62;30294;-73
2022/01/17 22:53:10;;;;;;;4.45;2.42;;;17.30;73.90;;;;;;2274926;62;30275;-73
2022/01/17 22:55:36;;;;;;;5.85;2.50;;;17.30;73.90;;;;;;2268240;62;32621;-72
2022/01/17 22:58:03;;;;;;;5.68;2.20;;;17.30;73.90;;;;;;2266885;62;30634;-73
2022/01/17 23:00:29;;;;;;;5.32;2.20;;;17.30;73.90;;;;;;2267612;62;30565;-72
2022/01/17 23:02:55;;;;;;;4.40;2.33;;;17.40;73.90;;;;;;2270792;62;30342;-72
2022/01/17 23:05:20;;;;;;;4.45;2.28;;;17.40;73.90;;;;;;2260712;62;31161;-73
2022/01/17 23:07:46;;;;;;;5.72;2.72;;;17.40;73.90;;;;;;2267396;62;30333;-72
2022/01/17 23:10:12;;;;;;;5.68;2.75;;;17.30;73.80;;;;;;2267426;62;30311;-72
2022/01/17 23:12:38;;;;;;;4.35;2.30;;;17.30;73.90;;;;;;2267626;62;30298;-73
2022/01/17 23:15:10;;;;;;;6.72;3.10;;;17.20;74.00;;;;;;2266986;62;31140;-73
2022/01/17 23:17:38;;;;;;;4.82;2.47;;;17.20;74.10;;;;;;2267100;62;31770;-68
2022/01/17 23:20:07;;;;;;;6.30;2.67;;;17.20;74.10;;;;;;2259231;62;31481;-68
2022/01/17 23:22:33;;;;;;;7.20;2.70;;;17.20;74.00;;;;;;2259565;62;30267;-68
2022/01/17 23:24:59;;;;;;;12.88;2.75;;;17.30;74.10;;;;;;2259346;63;31014;-69
2022/01/17 23:27:25;;;;;;;6.70;2.72;;;17.30;74.10;;;;;;2259248;63;30621;-70
2022/01/17 23:29:59;;;;;;;5.78;2.65;;;17.30;74.10;;;;;;2258856;62;30174;-70
2022/01/17 23:35:10;;;;;;;9.02;2.97;;;17.30;74.00;;;;;;2267583;62;30214;-69
